createdAt,value
2019-05-18T00:02:03.932Z,7.83
2019-05-18T00:04:32.022Z,7.97
2019-05-18T00:06:59.452Z,8.27
2019-05-18T00:09:27.318Z,7.67
2019-05-18T00:11:54.733Z,7.90
2019-05-18T00:14:22.163Z,8.30
2019-05-18T00:16:49.942Z,7.85
2019-05-18T00:19:17.706Z,10.67
2019-05-18T00:21:45.073Z,7.90
2019-05-18T00:24:12.440Z,8.83
2019-05-18T00:26:40.696Z,8.25
2019-05-18T00:29:08.155Z,7.60
2019-05-18T00:31:35.879Z,6.28
2019-05-18T00:34:03.256Z,6.60
2019-05-18T00:36:31.648Z,6.43
2019-05-18T00:38:58.925Z,8.17
2019-05-18T00:41:26.405Z,6.97
2019-05-18T00:43:53.825Z,7.67
2019-05-18T00:46:21.580Z,8.93
2019-05-18T00:48:48.997Z,8.03
2019-05-18T00:51:17.179Z,8.60
2019-05-18T00:53:45.524Z,9.10
2019-05-18T00:56:12.828Z,8.93
2019-05-18T00:58:40.206Z,9.27
2019-05-18T01:01:07.926Z,9.23
2019-05-18T01:03:35.393Z,8.57
2019-05-18T01:06:02.766Z,9.33
2019-05-18T01:08:30.540Z,9.63
2019-05-18T01:10:57.866Z,8.90
2019-05-18T01:13:25.257Z,8.87
2019-05-18T01:15:52.789Z,9.30
2019-05-18T01:18:20.656Z,9.37
2019-05-18T01:20:49.664Z,8.53
2019-05-18T01:23:17.370Z,9.40
2019-05-18T01:25:45.394Z,9.13
2019-05-18T01:28:12.675Z,9.37
2019-05-18T01:30:40.016Z,9.30
2019-05-18T01:33:07.340Z,9.63
2019-05-18T01:35:34.747Z,9.50
2019-05-18T01:38:02.906Z,9.60
2019-05-18T01:40:30.344Z,10.03
2019-05-18T01:42:58.047Z,9.30
2019-05-18T01:45:25.707Z,8.77
2019-05-18T01:47:53.132Z,8.07
2019-05-18T01:50:20.895Z,9.17
2019-05-18T01:52:48.298Z,8.20
2019-05-18T01:55:16.222Z,8.17
2019-05-18T01:57:43.540Z,8.63
2019-05-18T02:00:11.299Z,10.30
2019-05-18T02:02:38.683Z,9.90
2019-05-18T02:05:06.896Z,10.30
2019-05-18T02:07:34.657Z,9.40
2019-05-18T02:10:02.660Z,9.27
2019-05-18T02:12:30.253Z,10.10
2019-05-18T02:14:57.604Z,9.73
2019-05-18T02:17:25.338Z,10.80
2019-05-18T02:19:53.037Z,10.47
2019-05-18T02:22:21.516Z,11.37
2019-05-18T02:24:48.862Z,9.90
2019-05-18T02:27:16.272Z,9.53
2019-05-18T02:29:43.681Z,9.40
2019-05-18T02:32:10.998Z,8.97
2019-05-18T02:34:38.391Z,9.67
2019-05-18T02:37:05.761Z,9.90
2019-05-18T02:39:33.570Z,9.77
2019-05-18T02:42:01.186Z,9.67
2019-05-18T02:44:28.833Z,10.73
2019-05-18T02:46:56.195Z,9.80
2019-05-18T02:49:23.560Z,9.63
2019-05-18T02:51:51.085Z,9.73
2019-05-18T02:54:18.521Z,9.33
2019-05-18T02:56:46.232Z,8.53
2019-05-18T02:59:13.710Z,9.87
2019-05-18T03:01:41.174Z,8.03
2019-05-18T03:04:08.827Z,7.20
2019-05-18T03:06:36.317Z,7.43
2019-05-18T03:09:05.785Z,7.63
2019-05-18T03:11:33.541Z,8.13
2019-05-18T03:14:00.983Z,7.90
2019-05-18T03:16:28.654Z,8.87
2019-05-18T03:19:07.507Z,8.97
2019-05-18T03:21:26.310Z,8.70
2019-05-18T03:23:53.595Z,8.63
2019-05-18T03:26:21.255Z,10.10
2019-05-18T03:28:48.947Z,8.60
2019-05-18T03:31:16.412Z,8.53
2019-05-18T03:33:44.536Z,7.67
2019-05-18T03:36:11.922Z,9.63
2019-05-18T03:38:39.348Z,7.67
2019-05-18T03:41:07.002Z,7.53
2019-05-18T03:43:34.724Z,8.17
2019-05-18T03:46:03.074Z,7.80
2019-05-18T03:48:30.557Z,6.73
2019-05-18T03:50:58.234Z,6.57
2019-05-18T03:53:26.004Z,9.20
2019-05-18T03:55:53.783Z,8.93
2019-05-18T03:58:21.420Z,9.00
2019-05-18T04:00:48.907Z,9.57
2019-05-18T04:03:16.288Z,8.17
2019-05-18T04:05:43.747Z,8.67
2019-05-18T04:08:11.812Z,8.27
2019-05-18T04:10:39.633Z,9.33
2019-05-18T04:13:07.684Z,8.80
2019-05-18T04:15:35.051Z,8.43
2019-05-18T04:18:02.522Z,7.80
2019-05-18T04:20:30.210Z,7.80
2019-05-18T04:22:57.991Z,7.90
2019-05-18T04:25:25.291Z,8.07
2019-05-18T04:27:53.023Z,7.70
2019-05-18T04:30:20.385Z,6.47
2019-05-18T04:32:47.737Z,6.70
2019-05-18T04:35:16.213Z,6.37
2019-05-18T04:37:43.940Z,8.03
2019-05-18T04:40:11.768Z,7.80
2019-05-18T04:42:39.917Z,7.20
2019-05-18T04:45:07.765Z,7.17
2019-05-18T04:47:35.134Z,7.30
2019-05-18T04:50:05.717Z,7.20
2019-05-18T04:52:32.566Z,7.10
2019-05-18T04:55:00.387Z,8.40
2019-05-18T04:57:27.809Z,7.20
2019-05-18T04:59:55.603Z,7.75
2019-05-18T05:02:23.415Z,7.93
2019-05-18T05:04:53.890Z,7.23
2019-05-18T05:07:20.509Z,7.33
2019-05-18T05:09:48.295Z,8.18
2019-05-18T05:12:15.742Z,7.30
2019-05-18T05:14:43.080Z,7.40
2019-05-18T05:17:10.399Z,7.40
2019-05-18T05:19:38.155Z,7.30
2019-05-18T05:22:05.861Z,7.70
2019-05-18T05:24:33.284Z,7.60
2019-05-18T05:27:00.720Z,7.20
2019-05-18T05:29:29.266Z,8.13
2019-05-18T05:31:56.926Z,7.62
2019-05-18T05:34:25.875Z,6.85
2019-05-18T05:36:53.265Z,6.65
2019-05-18T05:39:20.658Z,6.25
2019-05-18T05:41:48.347Z,6.42
2019-05-18T05:44:15.865Z,6.08
2019-05-18T05:46:43.323Z,5.80
2019-05-18T05:49:10.709Z,5.90
2019-05-18T05:51:38.347Z,6.15
2019-05-18T05:54:06.021Z,5.55
2019-05-18T05:56:33.660Z,5.42
2019-05-18T05:59:01.214Z,7.70
2019-05-18T06:01:28.648Z,5.22
2019-05-18T06:03:56.042Z,5.35
2019-05-18T06:06:23.304Z,5.53
2019-05-18T06:08:51.063Z,5.33
2019-05-18T06:11:18.816Z,4.80
2019-05-18T06:13:46.369Z,4.85
2019-05-18T06:16:13.785Z,5.30
2019-05-18T06:18:41.807Z,5.25
2019-05-18T06:21:09.241Z,5.10
2019-05-18T06:23:37.081Z,4.97
2019-05-18T06:26:04.525Z,4.67
2019-05-18T06:28:32.319Z,4.83
2019-05-18T06:30:59.727Z,5.30
2019-05-18T06:33:27.920Z,5.55
2019-05-18T06:35:55.641Z,5.22
2019-05-18T06:38:23.009Z,5.10
2019-05-18T06:40:50.348Z,4.65
2019-05-18T06:43:17.820Z,7.47
2019-05-18T06:45:45.213Z,4.60
2019-05-18T06:48:12.697Z,4.90
2019-05-18T06:50:40.882Z,4.95
2019-05-18T06:53:08.551Z,5.28
2019-05-18T06:55:36.678Z,4.78
2019-05-18T06:58:04.130Z,4.47
2019-05-18T07:00:31.457Z,5.12
2019-05-18T07:02:58.792Z,4.80
2019-05-18T07:05:26.691Z,5.33
2019-05-18T07:07:54.143Z,5.10
2019-05-18T07:10:21.631Z,4.25
2019-05-18T07:12:48.963Z,4.42
2019-05-18T07:15:17.907Z,4.03
2019-05-18T07:17:45.304Z,4.65
2019-05-18T07:20:12.870Z,3.90
2019-05-18T07:22:40.393Z,3.77
2019-05-18T07:25:07.825Z,4.28
2019-05-18T07:27:35.242Z,4.25
2019-05-18T07:30:02.952Z,4.45
2019-05-18T07:32:30.390Z,3.70
2019-05-18T07:34:57.757Z,3.35
2019-05-18T07:37:25.291Z,4.92
2019-05-18T07:39:52.806Z,5.15
2019-05-18T07:42:20.252Z,3.95
2019-05-18T07:44:47.720Z,4.00
2019-05-18T07:47:15.889Z,3.83
2019-05-18T07:49:43.461Z,3.40
2019-05-18T07:52:11.119Z,4.33
2019-05-18T07:54:38.602Z,5.15
2019-05-18T07:57:06.078Z,4.80
2019-05-18T07:59:33.834Z,3.67
2019-05-18T08:02:01.495Z,3.75
2019-05-18T08:04:28.975Z,2.87
2019-05-18T08:06:56.695Z,2.85
2019-05-18T08:09:24.580Z,3.35
2019-05-18T08:11:52.005Z,4.60
2019-05-18T08:14:19.684Z,3.65
2019-05-18T08:16:47.097Z,3.75
2019-05-18T08:19:15.124Z,3.02
2019-05-18T08:21:52.929Z,2.65
2019-05-18T08:24:12.110Z,3.75
2019-05-18T08:26:39.514Z,2.92
2019-05-18T08:29:07.290Z,2.60
2019-05-18T08:31:34.696Z,2.60
2019-05-18T08:34:02.173Z,2.47
2019-05-18T08:36:30.006Z,2.83
2019-05-18T08:38:57.573Z,2.85
2019-05-18T08:41:25.167Z,3.45
2019-05-18T08:43:53.203Z,2.55
2019-05-18T08:46:20.710Z,3.87
2019-05-18T08:48:48.379Z,2.17
2019-05-18T08:51:15.735Z,2.47
2019-05-18T08:53:44.034Z,2.70
2019-05-18T08:56:11.913Z,2.37
2019-05-18T08:58:39.295Z,2.40
2019-05-18T09:01:06.657Z,2.20
2019-05-18T09:03:34.477Z,3.10
2019-05-18T09:06:01.924Z,2.00
2019-05-18T09:08:29.894Z,3.17
2019-05-18T09:10:57.320Z,2.52
2019-05-18T09:13:24.796Z,2.72
2019-05-18T09:15:52.624Z,38.10
2019-05-18T09:18:20.395Z,8.18
2019-05-18T09:20:47.931Z,2.25
2019-05-18T09:23:15.448Z,3.05
2019-05-18T09:25:42.866Z,3.83
2019-05-18T09:28:10.456Z,2.55
2019-05-18T09:30:41.173Z,2.33
2019-05-18T09:33:08.044Z,2.70
2019-05-18T09:35:35.444Z,4.33
2019-05-18T09:38:02.764Z,3.02
2019-05-18T09:40:30.154Z,3.70
2019-05-18T09:42:57.742Z,3.08
2019-05-18T09:45:25.513Z,2.33
2019-05-18T09:47:54.819Z,2.50
2019-05-18T09:50:22.390Z,2.02
2019-05-18T09:52:50.101Z,2.25
2019-05-18T09:55:18.128Z,2.65
2019-05-18T09:57:45.870Z,2.20
2019-05-18T10:00:14.396Z,3.30
2019-05-18T10:02:41.837Z,2.92
2019-05-18T10:05:13.791Z,2.50
2019-05-18T10:07:42.335Z,1.90
2019-05-18T10:10:10.088Z,2.00
2019-05-18T10:12:37.432Z,2.42
2019-05-18T10:15:05.174Z,2.10
2019-05-18T10:17:32.934Z,2.37
2019-05-18T10:20:00.573Z,2.30
2019-05-18T10:22:28.259Z,2.45
2019-05-18T10:24:55.724Z,2.20
2019-05-18T10:27:23.106Z,2.70
2019-05-18T10:29:54.283Z,1.90
2019-05-18T10:32:22.496Z,1.95
2019-05-18T10:34:50.136Z,2.27
2019-05-18T10:37:17.543Z,2.30
2019-05-18T10:39:45.440Z,2.77
2019-05-18T10:42:13.105Z,2.25
2019-05-18T10:44:40.557Z,2.27
2019-05-18T10:47:08.225Z,1.90
2019-05-18T10:49:35.715Z,2.20
2019-05-18T10:52:04.640Z,1.95
2019-05-18T10:54:31.975Z,2.00
2019-05-18T10:56:59.842Z,1.87
2019-05-18T10:59:27.224Z,1.80
2019-05-18T11:01:55.004Z,2.15
2019-05-18T11:04:22.902Z,1.90
2019-05-18T11:06:50.280Z,2.52
2019-05-18T11:09:18.242Z,2.77
2019-05-18T11:11:45.601Z,1.90
2019-05-18T11:14:13.212Z,2.20
2019-05-18T11:16:40.660Z,2.25
2019-05-18T11:19:08.484Z,2.12
2019-05-18T11:21:35.898Z,2.95
2019-05-18T11:24:03.251Z,2.08
2019-05-18T11:26:30.643Z,2.17
2019-05-18T11:28:58.077Z,2.50
2019-05-18T11:31:25.531Z,2.42
2019-05-18T11:33:52.964Z,2.02
2019-05-18T11:36:20.360Z,2.02
2019-05-18T11:38:47.698Z,2.10
2019-05-18T11:41:15.442Z,2.90
2019-05-18T11:43:42.857Z,2.15
2019-05-18T11:46:10.272Z,1.95
2019-05-18T11:48:37.715Z,3.85
2019-05-18T11:51:05.719Z,2.92
2019-05-18T11:53:33.407Z,2.90
2019-05-18T11:56:00.752Z,1.95
2019-05-18T11:58:30.495Z,1.90
2019-05-18T12:00:57.937Z,4.37
2019-05-18T12:03:25.743Z,2.08
2019-05-18T12:05:53.733Z,3.42
2019-05-18T12:08:21.180Z,1.80
2019-05-18T12:10:48.837Z,2.02
2019-05-18T12:13:16.213Z,2.87
2019-05-18T12:15:43.649Z,2.08
2019-05-18T12:18:11.052Z,2.00
2019-05-18T12:20:38.761Z,2.40
2019-05-18T12:23:08.604Z,3.12
2019-05-18T12:25:35.578Z,2.25
2019-05-18T12:28:02.952Z,21.68
2019-05-18T12:30:30.802Z,2.98
2019-05-18T12:32:58.284Z,2.25
2019-05-18T12:35:25.658Z,3.83
2019-05-18T12:37:53.334Z,2.65
2019-05-18T12:40:21.526Z,3.75
2019-05-18T12:42:49.495Z,4.12
2019-05-18T12:45:17.631Z,3.08
2019-05-18T12:47:45.786Z,2.40
2019-05-18T12:50:14.410Z,2.67
2019-05-18T12:52:41.855Z,2.62
2019-05-18T12:55:09.722Z,3.67
2019-05-18T12:57:37.174Z,2.52
2019-05-18T13:00:05.457Z,2.77
2019-05-18T13:02:32.819Z,2.40
2019-05-18T13:05:00.347Z,5.55
2019-05-18T13:07:27.729Z,2.45
2019-05-18T13:09:55.061Z,2.30
2019-05-18T13:12:22.560Z,2.45
2019-05-18T13:14:50.197Z,2.77
2019-05-18T13:17:17.569Z,2.08
2019-05-18T13:19:45.289Z,2.15
2019-05-18T13:22:12.990Z,2.30
2019-05-18T13:24:45.151Z,2.20
2019-05-18T13:27:09.799Z,2.10
2019-05-18T13:29:37.757Z,2.45
2019-05-18T13:32:05.159Z,2.72
2019-05-18T13:34:32.891Z,2.37
2019-05-18T13:37:00.533Z,3.22
2019-05-18T13:39:28.233Z,2.47
2019-05-18T13:41:55.965Z,3.42
2019-05-18T13:44:23.713Z,3.12
2019-05-18T13:46:51.140Z,3.25
2019-05-18T13:49:18.867Z,2.83
2019-05-18T13:51:46.842Z,3.80
2019-05-18T13:54:14.238Z,4.20
2019-05-18T13:56:42.458Z,2.92
2019-05-18T13:59:17.764Z,2.50
2019-05-18T14:01:45.281Z,2.12
2019-05-18T14:04:13.387Z,2.17
2019-05-18T14:06:41.036Z,2.52
2019-05-18T14:09:08.986Z,3.45
2019-05-18T14:11:36.471Z,2.52
2019-05-18T14:14:04.145Z,3.30
2019-05-18T14:16:39.620Z,2.42
2019-05-18T14:19:07.986Z,3.20
2019-05-18T14:21:35.440Z,2.72
2019-05-18T14:24:02.882Z,3.75
2019-05-18T14:26:31.077Z,5.92
2019-05-18T14:29:01.382Z,7.25
2019-05-18T14:31:29.655Z,4.28
2019-05-18T14:33:57.120Z,5.10
2019-05-18T14:36:24.811Z,6.22
2019-05-18T14:38:56.867Z,6.30
2019-05-18T14:41:28.061Z,5.37
2019-05-18T14:43:55.522Z,3.08
2019-05-18T14:46:22.961Z,3.42
2019-05-18T14:48:50.592Z,3.30
2019-05-18T14:51:18.268Z,3.47
2019-05-18T14:53:45.588Z,3.42
2019-05-18T14:56:13.545Z,4.20
2019-05-18T14:58:41.562Z,3.90
2019-05-18T15:01:09.200Z,2.67
2019-05-18T15:03:36.926Z,2.90
2019-05-18T15:06:04.458Z,3.15
2019-05-18T15:08:32.196Z,3.50
2019-05-18T15:10:59.747Z,3.95
2019-05-18T15:13:27.249Z,3.40
2019-05-18T15:15:55.029Z,3.52
2019-05-18T15:18:22.529Z,4.83
2019-05-18T15:20:49.915Z,3.05
2019-05-18T15:23:17.553Z,3.35
2019-05-18T15:25:50.612Z,2.70
2019-05-18T15:28:14.316Z,3.20
2019-05-18T15:30:41.710Z,3.02
2019-05-18T15:33:09.082Z,3.33
2019-05-18T15:35:36.611Z,3.37
2019-05-18T15:38:04.161Z,3.35
2019-05-18T15:40:31.644Z,3.30
2019-05-18T15:42:59.106Z,3.15
2019-05-18T15:45:26.493Z,3.15
2019-05-18T15:47:54.775Z,3.08
2019-05-18T15:50:22.534Z,2.95
2019-05-18T15:52:49.968Z,3.08
2019-05-18T15:55:17.698Z,2.83
2019-05-18T15:57:46.016Z,2.87
2019-05-18T16:00:14.675Z,2.70
2019-05-18T16:02:42.153Z,2.40
2019-05-18T16:05:09.705Z,3.72
2019-05-18T16:07:37.458Z,5.08
2019-05-18T16:10:05.634Z,3.40
2019-05-18T16:12:33.573Z,3.20
2019-05-18T16:15:01.786Z,3.12
2019-05-18T16:17:38.880Z,2.42
2019-05-18T16:19:59.329Z,2.02
2019-05-18T16:22:26.990Z,2.98
2019-05-18T16:24:54.505Z,2.10
2019-05-18T16:27:21.921Z,2.35
2019-05-18T16:29:49.416Z,2.37
2019-05-18T16:32:16.764Z,1.80
2019-05-18T16:34:45.226Z,2.25
2019-05-18T16:37:12.586Z,1.98
2019-05-18T16:39:40.494Z,3.92
2019-05-18T16:42:07.984Z,2.42
2019-05-18T16:44:35.726Z,3.12
2019-05-18T16:47:03.169Z,2.50
2019-05-18T16:49:30.790Z,3.30
2019-05-18T16:51:58.786Z,2.30
2019-05-18T16:54:26.150Z,2.70
2019-05-18T16:56:53.738Z,2.15
2019-05-18T16:59:21.522Z,1.62
2019-05-18T17:01:49.220Z,2.40
2019-05-18T17:04:16.634Z,3.95
2019-05-18T17:06:44.037Z,2.12
2019-05-18T17:09:11.545Z,3.62
2019-05-18T17:11:39.011Z,9.50
2019-05-18T17:14:06.661Z,4.15
2019-05-18T17:16:34.076Z,4.08
2019-05-18T17:19:01.802Z,3.50
2019-05-18T17:21:29.834Z,3.42
2019-05-18T17:23:57.635Z,2.37
2019-05-18T17:26:25.676Z,5.15
2019-05-18T17:28:53.289Z,2.45
2019-05-18T17:31:21.017Z,2.30
2019-05-18T17:33:48.442Z,2.70
2019-05-18T17:36:16.287Z,2.40
2019-05-18T17:38:43.708Z,2.60
2019-05-18T17:41:11.427Z,2.52
2019-05-18T17:43:39.053Z,2.90
2019-05-18T17:46:06.577Z,3.08
2019-05-18T17:48:34.092Z,2.85
2019-05-18T17:51:02.164Z,4.10
2019-05-18T17:53:29.773Z,4.83
2019-05-18T17:55:57.476Z,3.22
2019-05-18T17:58:25.070Z,3.30
2019-05-18T18:00:52.829Z,5.20
2019-05-18T18:03:20.876Z,4.12
2019-05-18T18:05:48.299Z,3.67
2019-05-18T18:08:15.924Z,3.95
2019-05-18T18:10:43.901Z,3.77
2019-05-18T18:13:11.312Z,3.92
2019-05-18T18:15:38.735Z,5.70
2019-05-18T18:18:07.540Z,4.50
2019-05-18T18:20:35.552Z,5.53
2019-05-18T18:23:05.935Z,5.08
2019-05-18T18:25:33.783Z,3.87
2019-05-18T18:28:01.334Z,3.90
2019-05-18T18:30:28.839Z,3.80
2019-05-18T18:32:56.636Z,4.40
2019-05-18T18:35:24.532Z,3.85
2019-05-18T18:37:51.923Z,3.55
2019-05-18T18:40:19.438Z,7.12
2019-05-18T18:42:47.345Z,10.43
2019-05-18T18:45:15.109Z,11.25
2019-05-18T18:47:42.836Z,13.78
2019-05-18T18:50:10.723Z,10.58
2019-05-18T18:52:38.305Z,12.63
2019-05-18T18:55:05.892Z,9.50
2019-05-18T18:57:41.316Z,7.22
2019-05-18T19:00:04.199Z,4.12
2019-05-18T19:02:31.558Z,5.20
2019-05-18T19:04:59.039Z,5.15
2019-05-18T19:07:26.952Z,5.37
2019-05-18T19:09:54.622Z,4.25
2019-05-18T19:12:22.854Z,4.58
2019-05-18T19:14:50.562Z,4.58
2019-05-18T19:17:18.044Z,5.08
2019-05-18T19:19:45.765Z,8.53
2019-05-18T19:22:13.279Z,11.05
2019-05-18T19:24:41.201Z,10.63
2019-05-18T19:27:08.926Z,9.40
2019-05-18T19:29:36.445Z,10.88
2019-05-18T19:32:04.201Z,9.63
2019-05-18T19:34:31.869Z,11.08
2019-05-18T19:36:59.230Z,19.27
2019-05-18T19:39:26.775Z,19.85
2019-05-18T19:41:54.443Z,17.70
2019-05-18T19:44:23.927Z,15.75
2019-05-18T19:46:51.116Z,14.00
2019-05-18T19:49:19.477Z,14.28
2019-05-18T19:51:46.952Z,14.98
2019-05-18T19:54:14.675Z,14.00
2019-05-18T19:56:43.813Z,15.78
2019-05-18T19:59:11.876Z,15.48
2019-05-18T20:01:39.219Z,14.45
2019-05-18T20:04:06.630Z,16.80
2019-05-18T20:06:34.328Z,14.78
2019-05-18T20:09:02.029Z,11.40
2019-05-18T20:11:30.025Z,10.88
2019-05-18T20:13:57.433Z,14.15
2019-05-18T20:16:24.832Z,30.57
2019-05-18T20:18:52.350Z,53.33
2019-05-18T20:21:19.809Z,28.35
2019-05-18T20:23:47.260Z,17.85
2019-05-18T20:26:14.768Z,16.05
2019-05-18T20:28:42.470Z,15.48
2019-05-18T20:31:09.872Z,12.20
2019-05-18T20:33:37.297Z,13.15
2019-05-18T20:36:05.217Z,14.50
2019-05-18T20:38:32.888Z,15.55
2019-05-18T20:41:00.528Z,16.93
2019-05-18T20:43:42.552Z,15.75
2019-05-18T20:46:10.906Z,12.63
2019-05-18T20:48:38.324Z,10.75
2019-05-18T20:51:06.188Z,10.90
2019-05-18T20:53:33.539Z,11.25
2019-05-18T20:56:00.960Z,11.45
2019-05-18T20:58:39.487Z,9.20
2019-05-18T21:00:58.062Z,11.48
2019-05-18T21:03:25.524Z,9.55
2019-05-18T21:05:52.858Z,12.03
2019-05-18T21:08:20.906Z,10.88
2019-05-18T21:10:48.360Z,14.18
2019-05-18T21:13:15.714Z,14.53
2019-05-18T21:15:43.206Z,17.52
2019-05-18T21:18:11.097Z,9.28
2019-05-18T21:20:38.632Z,10.23
2019-05-18T21:23:06.460Z,10.05
2019-05-18T21:25:33.894Z,11.35
2019-05-18T21:28:01.414Z,11.38
2019-05-18T21:30:28.989Z,14.23
2019-05-18T21:32:56.318Z,17.57
2019-05-18T21:35:23.731Z,14.20
2019-05-18T21:37:51.150Z,15.05
2019-05-18T21:40:18.897Z,16.48
2019-05-18T21:42:46.710Z,14.78
2019-05-18T21:45:14.173Z,14.85
2019-05-18T21:47:41.471Z,13.72
2019-05-18T21:50:09.678Z,13.98
2019-05-18T21:52:37.420Z,11.15
2019-05-18T21:55:05.285Z,11.63
2019-05-18T21:57:33.636Z,10.70
2019-05-18T22:00:01.482Z,12.43
2019-05-18T22:02:28.929Z,10.38
2019-05-18T22:04:56.545Z,10.68
2019-05-18T22:07:23.921Z,10.08
2019-05-18T22:09:53.688Z,9.88
2019-05-18T22:12:20.578Z,10.00
2019-05-18T22:14:48.005Z,14.25
2019-05-18T22:17:15.990Z,14.95
2019-05-18T22:19:43.442Z,14.83
2019-05-18T22:22:11.067Z,14.45
2019-05-18T22:24:38.874Z,13.30
2019-05-18T22:27:06.239Z,13.30
2019-05-18T22:29:33.603Z,11.88
2019-05-18T22:32:01.286Z,11.10
2019-05-18T22:34:28.887Z,11.70
2019-05-18T22:36:56.238Z,11.03
2019-05-18T22:39:26.575Z,10.72
2019-05-18T22:41:53.178Z,10.03
2019-05-18T22:44:20.449Z,10.08
2019-05-18T22:46:47.775Z,10.10
2019-05-18T22:49:15.181Z,10.55
2019-05-18T22:51:42.588Z,10.50
2019-05-18T22:54:09.970Z,10.63
2019-05-18T22:56:37.720Z,10.70
2019-05-18T22:59:05.279Z,9.83
2019-05-18T23:01:32.710Z,10.43
2019-05-18T23:03:59.994Z,10.13
2019-05-18T23:06:27.494Z,11.93
2019-05-18T23:08:54.972Z,12.70
2019-05-18T23:11:22.238Z,12.93
2019-05-18T23:13:49.854Z,13.95
2019-05-18T23:16:17.785Z,15.70
2019-05-18T23:18:56.321Z,11.38
2019-05-18T23:21:14.792Z,11.88
2019-05-18T23:23:42.139Z,11.12
2019-05-18T23:26:11.738Z,10.88
2019-05-18T23:28:39.313Z,10.93
2019-05-18T23:31:06.647Z,11.05
2019-05-18T23:33:34.556Z,11.18
2019-05-18T23:36:02.015Z,10.82
2019-05-18T23:38:29.445Z,10.38
2019-05-18T23:40:57.550Z,10.00
2019-05-18T23:43:24.848Z,10.68
2019-05-18T23:45:52.265Z,10.05
2019-05-18T23:48:20.290Z,9.05
2019-05-18T23:50:47.672Z,11.25
2019-05-18T23:53:15.084Z,8.63
2019-05-18T23:55:42.717Z,10.55
2019-05-18T23:58:10.144Z,9.83
